sensor_id;sensor_type;location;lat;lon;timestamp;P1;durP1;ratioP1;P2;durP2;ratioP2
27722;SDS011;15123;-37.794;175.246;2023-05-28T00:01:44;9.38;;;1.02;;
27722;SDS011;15123;-37.794;175.246;2023-05-28T00:05:08;6.07;;;0.75;;
27722;SDS011;15123;-37.794;175.246;2023-05-28T00:08:32;8.02;;;0.90;;
27722;SDS011;15123;-37.794;175.246;2023-05-28T00:11:49;6.40;;;0.95;;
27722;SDS011;15123;-37.794;175.246;2023-05-28T00:15:13;5.47;;;0.80;;
27722;SDS011;15123;-37.794;175.246;2023-05-28T00:18:37;4.35;;;0.60;;
27722;SDS011;15123;-37.794;175.246;2023-05-28T00:22:02;5.40;;;0.63;;
27722;SDS011;15123;-37.794;175.246;2023-05-28T00:25:26;6.85;;;0.80;;
27722;SDS011;15123;-37.794;175.246;2023-05-28T00:28:51;6.40;;;1.15;;
27722;SDS011;15123;-37.794;175.246;2023-05-28T00:32:14;8.25;;;0.80;;
27722;SDS011;15123;-37.794;175.246;2023-05-28T00:35:39;7.05;;;0.90;;
27722;SDS011;15123;-37.794;175.246;2023-05-28T00:39:04;9.38;;;1.10;;
27722;SDS011;15123;-37.794;175.246;2023-05-28T00:42:28;7.95;;;1.00;;
27722;SDS011;15123;-37.794;175.246;2023-05-28T00:45:52;6.82;;;0.93;;
27722;SDS011;15123;-37.794;175.246;2023-05-28T00:49:20;8.60;;;0.95;;
27722;SDS011;15123;-37.794;175.246;2023-05-28T00:52:45;7.63;;;1.02;;
27722;SDS011;15123;-37.794;175.246;2023-05-28T00:56:10;6.28;;;0.95;;
27722;SDS011;15123;-37.794;175.246;2023-05-28T00:59:38;7.15;;;0.73;;
27722;SDS011;15123;-37.794;175.246;2023-05-28T01:03:03;7.68;;;0.90;;
27722;SDS011;15123;-37.794;175.246;2023-05-28T01:06:27;10.25;;;1.30;;
27722;SDS011;15123;-37.794;175.246;2023-05-28T01:09:53;10.82;;;1.20;;
27722;SDS011;15123;-37.794;175.246;2023-05-28T01:13:17;7.57;;;1.20;;
27722;SDS011;15123;-37.794;175.246;2023-05-28T01:16:43;9.45;;;1.17;;
27722;SDS011;15123;-37.794;175.246;2023-05-28T01:20:08;10.23;;;0.90;;
27722;SDS011;15123;-37.794;175.246;2023-05-28T01:23:38;8.27;;;0.90;;
27722;SDS011;15123;-37.794;175.246;2023-05-28T01:27:07;7.22;;;1.00;;
27722;SDS011;15123;-37.794;175.246;2023-05-28T01:30:33;6.22;;;0.90;;
27722;SDS011;15123;-37.794;175.246;2023-05-28T01:33:59;5.43;;;1.00;;
27722;SDS011;15123;-37.794;175.246;2023-05-28T01:37:24;4.05;;;0.70;;
27722;SDS011;15123;-37.794;175.246;2023-05-28T01:40:50;7.03;;;1.00;;
27722;SDS011;15123;-37.794;175.246;2023-05-28T01:44:15;6.78;;;0.95;;
27722;SDS011;15123;-37.794;175.246;2023-05-28T01:47:39;5.35;;;0.98;;
27722;SDS011;15123;-37.794;175.246;2023-05-28T01:51:03;8.35;;;1.00;;
27722;SDS011;15123;-37.794;175.246;2023-05-28T01:54:27;5.97;;;1.25;;
27722;SDS011;15123;-37.794;175.246;2023-05-28T01:57:51;6.38;;;1.35;;
27722;SDS011;15123;-37.794;175.246;2023-05-28T02:01:25;6.60;;;0.90;;
27722;SDS011;15123;-37.794;175.246;2023-05-28T02:04:53;5.47;;;1.00;;
27722;SDS011;15123;-37.794;175.246;2023-05-28T02:08:17;4.38;;;0.80;;
27722;SDS011;15123;-37.794;175.246;2023-05-28T02:11:41;6.22;;;0.80;;
27722;SDS011;15123;-37.794;175.246;2023-05-28T02:15:05;10.30;;;2.20;;
27722;SDS011;15123;-37.794;175.246;2023-05-28T02:18:29;8.93;;;1.67;;
27722;SDS011;15123;-37.794;175.246;2023-05-28T02:21:47;8.15;;;1.40;;
27722;SDS011;15123;-37.794;175.246;2023-05-28T02:25:04;7.18;;;1.42;;
27722;SDS011;15123;-37.794;175.246;2023-05-28T02:28:28;10.18;;;1.50;;
27722;SDS011;15123;-37.794;175.246;2023-05-28T02:31:52;7.22;;;1.15;;
27722;SDS011;15123;-37.794;175.246;2023-05-28T02:35:16;9.77;;;1.30;;
27722;SDS011;15123;-37.794;175.246;2023-05-28T02:38:41;12.13;;;1.80;;
27722;SDS011;15123;-37.794;175.246;2023-05-28T02:42:06;8.57;;;1.13;;
27722;SDS011;15123;-37.794;175.246;2023-05-28T02:45:31;10.93;;;2.25;;
27722;SDS011;15123;-37.794;175.246;2023-05-28T02:48:58;12.45;;;2.40;;
27722;SDS011;15123;-37.794;175.246;2023-05-28T02:52:23;11.88;;;1.80;;
27722;SDS011;15123;-37.794;175.246;2023-05-28T02:55:49;14.10;;;1.85;;
27722;SDS011;15123;-37.794;175.246;2023-05-28T02:59:17;14.23;;;1.90;;
27722;SDS011;15123;-37.794;175.246;2023-05-28T03:02:41;10.80;;;1.90;;
27722;SDS011;15123;-37.794;175.246;2023-05-28T03:06:06;10.52;;;1.90;;
27722;SDS011;15123;-37.794;175.246;2023-05-28T03:09:29;8.15;;;1.45;;
27722;SDS011;15123;-37.794;175.246;2023-05-28T03:12:55;10.65;;;1.40;;
27722;SDS011;15123;-37.794;175.246;2023-05-28T03:16:20;8.80;;;1.20;;
27722;SDS011;15123;-37.794;175.246;2023-05-28T03:19:55;12.73;;;1.48;;
27722;SDS011;15123;-37.794;175.246;2023-05-28T03:23:14;10.57;;;1.75;;
27722;SDS011;15123;-37.794;175.246;2023-05-28T03:26:39;10.10;;;1.63;;
27722;SDS011;15123;-37.794;175.246;2023-05-28T03:30:05;11.63;;;2.15;;
27722;SDS011;15123;-37.794;175.246;2023-05-28T03:33:30;13.02;;;1.98;;
27722;SDS011;15123;-37.794;175.246;2023-05-28T03:36:54;8.75;;;1.40;;
27722;SDS011;15123;-37.794;175.246;2023-05-28T03:40:18;9.57;;;1.40;;
27722;SDS011;15123;-37.794;175.246;2023-05-28T03:43:43;12.70;;;1.52;;
27722;SDS011;15123;-37.794;175.246;2023-05-28T03:47:08;10.15;;;1.33;;
27722;SDS011;15123;-37.794;175.246;2023-05-28T03:50:33;10.82;;;1.15;;
27722;SDS011;15123;-37.794;175.246;2023-05-28T03:53:57;11.13;;;1.25;;
27722;SDS011;15123;-37.794;175.246;2023-05-28T03:57:22;9.15;;;1.30;;
27722;SDS011;15123;-37.794;175.246;2023-05-28T04:00:46;10.15;;;1.50;;
27722;SDS011;15123;-37.794;175.246;2023-05-28T04:04:11;11.48;;;1.60;;
27722;SDS011;15123;-37.794;175.246;2023-05-28T04:07:35;15.18;;;2.10;;
27722;SDS011;15123;-37.794;175.246;2023-05-28T04:10:59;15.48;;;2.53;;
27722;SDS011;15123;-37.794;175.246;2023-05-28T04:14:23;13.13;;;1.38;;
27722;SDS011;15123;-37.794;175.246;2023-05-28T04:17:47;13.02;;;1.50;;
27722;SDS011;15123;-37.794;175.246;2023-05-28T04:21:11;7.63;;;1.10;;
27722;SDS011;15123;-37.794;175.246;2023-05-28T04:24:35;14.35;;;1.70;;
27722;SDS011;15123;-37.794;175.246;2023-05-28T04:27:59;12.13;;;1.38;;
27722;SDS011;15123;-37.794;175.246;2023-05-28T04:31:23;9.43;;;1.00;;
27722;SDS011;15123;-37.794;175.246;2023-05-28T04:34:47;12.90;;;1.92;;
27722;SDS011;15123;-37.794;175.246;2023-05-28T04:38:12;12.65;;;1.30;;
27722;SDS011;15123;-37.794;175.246;2023-05-28T04:41:36;13.93;;;1.90;;
27722;SDS011;15123;-37.794;175.246;2023-05-28T04:45:02;11.13;;;1.48;;
27722;SDS011;15123;-37.794;175.246;2023-05-28T04:48:27;11.77;;;1.60;;
27722;SDS011;15123;-37.794;175.246;2023-05-28T04:51:53;11.13;;;1.40;;
27722;SDS011;15123;-37.794;175.246;2023-05-28T04:55:17;10.77;;;1.40;;
27722;SDS011;15123;-37.794;175.246;2023-05-28T04:58:43;12.25;;;1.60;;
27722;SDS011;15123;-37.794;175.246;2023-05-28T05:02:08;9.30;;;1.15;;
27722;SDS011;15123;-37.794;175.246;2023-05-28T05:05:36;11.30;;;1.70;;
27722;SDS011;15123;-37.794;175.246;2023-05-28T05:09:00;12.90;;;2.00;;
27722;SDS011;15123;-37.794;175.246;2023-05-28T05:12:24;12.10;;;2.35;;
27722;SDS011;15123;-37.794;175.246;2023-05-28T05:15:48;11.88;;;2.30;;
27722;SDS011;15123;-37.794;175.246;2023-05-28T05:19:12;12.98;;;2.38;;
27722;SDS011;15123;-37.794;175.246;2023-05-28T05:22:36;12.93;;;1.90;;
27722;SDS011;15123;-37.794;175.246;2023-05-28T05:26:02;15.25;;;1.90;;
27722;SDS011;15123;-37.794;175.246;2023-05-28T05:29:28;12.43;;;1.70;;
27722;SDS011;15123;-37.794;175.246;2023-05-28T05:32:52;10.73;;;1.38;;
27722;SDS011;15123;-37.794;175.246;2023-05-28T05:36:54;13.80;;;1.60;;
27722;SDS011;15123;-37.794;175.246;2023-05-28T05:40:39;15.52;;;1.90;;
27722;SDS011;15123;-37.794;175.246;2023-05-28T05:44:09;11.35;;;2.03;;
27722;SDS011;15123;-37.794;175.246;2023-05-28T05:47:34;14.20;;;1.80;;
27722;SDS011;15123;-37.794;175.246;2023-05-28T05:50:57;12.25;;;1.92;;
27722;SDS011;15123;-37.794;175.246;2023-05-28T05:54:21;16.80;;;2.28;;
27722;SDS011;15123;-37.794;175.246;2023-05-28T05:57:45;14.18;;;1.80;;
27722;SDS011;15123;-37.794;175.246;2023-05-28T06:01:09;9.77;;;1.77;;
27722;SDS011;15123;-37.794;175.246;2023-05-28T06:04:33;16.15;;;2.38;;
27722;SDS011;15123;-37.794;175.246;2023-05-28T06:08:16;8.13;;;1.75;;
27722;SDS011;15123;-37.794;175.246;2023-05-28T06:11:49;16.70;;;2.10;;
27722;SDS011;15123;-37.794;175.246;2023-05-28T06:15:13;14.77;;;1.70;;
27722;SDS011;15123;-37.794;175.246;2023-05-28T06:18:38;15.48;;;1.80;;
27722;SDS011;15123;-37.794;175.246;2023-05-28T06:22:02;13.43;;;1.70;;
27722;SDS011;15123;-37.794;175.246;2023-05-28T06:25:26;16.17;;;1.95;;
27722;SDS011;15123;-37.794;175.246;2023-05-28T06:28:50;14.45;;;1.92;;
27722;SDS011;15123;-37.794;175.246;2023-05-28T06:32:15;15.23;;;1.80;;
27722;SDS011;15123;-37.794;175.246;2023-05-28T06:35:39;16.20;;;2.05;;
27722;SDS011;15123;-37.794;175.246;2023-05-28T06:39:03;13.48;;;1.73;;
27722;SDS011;15123;-37.794;175.246;2023-05-28T06:42:27;11.15;;;1.85;;
27722;SDS011;15123;-37.794;175.246;2023-05-28T06:45:57;10.68;;;1.70;;
27722;SDS011;15123;-37.794;175.246;2023-05-28T06:49:21;13.32;;;1.65;;
27722;SDS011;15123;-37.794;175.246;2023-05-28T06:52:46;12.75;;;1.95;;
27722;SDS011;15123;-37.794;175.246;2023-05-28T06:56:10;11.63;;;1.42;;
27722;SDS011;15123;-37.794;175.246;2023-05-28T06:59:51;11.32;;;1.48;;
27722;SDS011;15123;-37.794;175.246;2023-05-28T07:03:36;19.70;;;6.57;;
27722;SDS011;15123;-37.794;175.246;2023-05-28T07:07:12;15.15;;;3.67;;
27722;SDS011;15123;-37.794;175.246;2023-05-28T07:10:36;13.93;;;1.95;;
27722;SDS011;15123;-37.794;175.246;2023-05-28T07:14:01;23.45;;;11.18;;
27722;SDS011;15123;-37.794;175.246;2023-05-28T07:17:26;16.90;;;5.03;;
27722;SDS011;15123;-37.794;175.246;2023-05-28T07:20:51;15.55;;;1.80;;
27722;SDS011;15123;-37.794;175.246;2023-05-28T07:24:19;11.85;;;1.52;;
27722;SDS011;15123;-37.794;175.246;2023-05-28T07:27:43;13.27;;;1.55;;
27722;SDS011;15123;-37.794;175.246;2023-05-28T07:31:06;13.52;;;2.40;;
27722;SDS011;15123;-37.794;175.246;2023-05-28T07:34:26;10.20;;;1.48;;
27722;SDS011;15123;-37.794;175.246;2023-05-28T07:37:51;10.20;;;1.85;;
27722;SDS011;15123;-37.794;175.246;2023-05-28T07:41:17;10.70;;;1.70;;
27722;SDS011;15123;-37.794;175.246;2023-05-28T07:44:53;14.02;;;1.52;;
27722;SDS011;15123;-37.794;175.246;2023-05-28T07:48:18;14.70;;;1.90;;
27722;SDS011;15123;-37.794;175.246;2023-05-28T07:51:47;15.82;;;1.83;;
27722;SDS011;15123;-37.794;175.246;2023-05-28T07:55:11;17.50;;;2.08;;
27722;SDS011;15123;-37.794;175.246;2023-05-28T07:58:36;12.65;;;1.92;;
27722;SDS011;15123;-37.794;175.246;2023-05-28T08:02:03;20.45;;;2.53;;
27722;SDS011;15123;-37.794;175.246;2023-05-28T08:05:28;15.75;;;1.77;;
27722;SDS011;15123;-37.794;175.246;2023-05-28T08:08:52;15.32;;;2.13;;
27722;SDS011;15123;-37.794;175.246;2023-05-28T08:12:17;18.90;;;2.13;;
27722;SDS011;15123;-37.794;175.246;2023-05-28T08:15:41;18.15;;;1.83;;
27722;SDS011;15123;-37.794;175.246;2023-05-28T08:19:21;19.17;;;2.50;;
27722;SDS011;15123;-37.794;175.246;2023-05-28T08:23:05;20.27;;;2.22;;
27722;SDS011;15123;-37.794;175.246;2023-05-28T08:26:29;14.85;;;2.25;;
27722;SDS011;15123;-37.794;175.246;2023-05-28T08:29:56;14.38;;;2.17;;
27722;SDS011;15123;-37.794;175.246;2023-05-28T08:33:30;15.95;;;2.35;;
27722;SDS011;15123;-37.794;175.246;2023-05-28T08:36:54;18.77;;;2.30;;
27722;SDS011;15123;-37.794;175.246;2023-05-28T08:40:34;17.83;;;2.13;;
27722;SDS011;15123;-37.794;175.246;2023-05-28T08:44:01;19.40;;;2.35;;
27722;SDS011;15123;-37.794;175.246;2023-05-28T08:47:26;18.23;;;2.47;;
27722;SDS011;15123;-37.794;175.246;2023-05-28T08:50:56;19.90;;;2.47;;
27722;SDS011;15123;-37.794;175.246;2023-05-28T08:54:21;15.90;;;2.28;;
27722;SDS011;15123;-37.794;175.246;2023-05-28T08:57:46;18.08;;;2.33;;
27722;SDS011;15123;-37.794;175.246;2023-05-28T09:01:11;15.60;;;1.85;;
27722;SDS011;15123;-37.794;175.246;2023-05-28T09:04:39;10.77;;;1.88;;
27722;SDS011;15123;-37.794;175.246;2023-05-28T09:08:07;17.05;;;1.85;;
27722;SDS011;15123;-37.794;175.246;2023-05-28T09:11:34;13.45;;;1.70;;
27722;SDS011;15123;-37.794;175.246;2023-05-28T09:14:58;12.38;;;1.80;;
27722;SDS011;15123;-37.794;175.246;2023-05-28T09:18:22;11.77;;;1.90;;
27722;SDS011;15123;-37.794;175.246;2023-05-28T09:21:55;10.95;;;1.45;;
27722;SDS011;15123;-37.794;175.246;2023-05-28T09:25:29;10.48;;;1.48;;
27722;SDS011;15123;-37.794;175.246;2023-05-28T09:29:06;9.82;;;1.50;;
27722;SDS011;15123;-37.794;175.246;2023-05-28T09:32:35;8.70;;;1.17;;
27722;SDS011;15123;-37.794;175.246;2023-05-28T09:35:59;10.82;;;1.40;;
27722;SDS011;15123;-37.794;175.246;2023-05-28T09:39:24;12.00;;;1.33;;
27722;SDS011;15123;-37.794;175.246;2023-05-28T09:42:47;10.93;;;1.27;;
27722;SDS011;15123;-37.794;175.246;2023-05-28T09:46:12;11.02;;;1.38;;
27722;SDS011;15123;-37.794;175.246;2023-05-28T09:49:37;8.82;;;1.40;;
27722;SDS011;15123;-37.794;175.246;2023-05-28T09:53:02;11.07;;;1.30;;
27722;SDS011;15123;-37.794;175.246;2023-05-28T09:56:27;8.27;;;1.45;;
27722;SDS011;15123;-37.794;175.246;2023-05-28T09:59:55;11.85;;;1.67;;
27722;SDS011;15123;-37.794;175.246;2023-05-28T10:06:56;9.20;;;1.42;;
27722;SDS011;15123;-37.794;175.246;2023-05-28T10:10:23;9.25;;;1.40;;
27722;SDS011;15123;-37.794;175.246;2023-05-28T10:13:46;11.65;;;1.20;;
27722;SDS011;15123;-37.794;175.246;2023-05-28T10:17:11;8.63;;;1.45;;
27722;SDS011;15123;-37.794;175.246;2023-05-28T10:20:35;12.63;;;1.58;;
27722;SDS011;15123;-37.794;175.246;2023-05-28T10:23:59;8.32;;;1.15;;
27722;SDS011;15123;-37.794;175.246;2023-05-28T10:27:30;11.48;;;1.35;;
27722;SDS011;15123;-37.794;175.246;2023-05-28T10:31:13;13.95;;;1.88;;
27722;SDS011;15123;-37.794;175.246;2023-05-28T10:34:43;9.25;;;1.50;;
27722;SDS011;15123;-37.794;175.246;2023-05-28T10:38:08;10.90;;;1.50;;
27722;SDS011;15123;-37.794;175.246;2023-05-28T10:41:33;9.65;;;1.40;;
27722;SDS011;15123;-37.794;175.246;2023-05-28T10:48:32;16.58;;;1.92;;
27722;SDS011;15123;-37.794;175.246;2023-05-28T10:55:23;12.00;;;1.75;;
27722;SDS011;15123;-37.794;175.246;2023-05-28T10:58:48;13.68;;;1.85;;
27722;SDS011;15123;-37.794;175.246;2023-05-28T11:02:16;10.55;;;1.10;;
27722;SDS011;15123;-37.794;175.246;2023-05-28T11:05:41;9.05;;;1.10;;
27722;SDS011;15123;-37.794;175.246;2023-05-28T11:09:05;10.20;;;1.00;;
27722;SDS011;15123;-37.794;175.246;2023-05-28T11:12:30;15.65;;;1.48;;
27722;SDS011;15123;-37.794;175.246;2023-05-28T11:16:04;16.33;;;1.65;;
27722;SDS011;15123;-37.794;175.246;2023-05-28T11:19:29;14.00;;;1.80;;
27722;SDS011;15123;-37.794;175.246;2023-05-28T11:22:54;14.38;;;1.85;;
27722;SDS011;15123;-37.794;175.246;2023-05-28T11:26:21;14.38;;;1.50;;
27722;SDS011;15123;-37.794;175.246;2023-05-28T11:29:43;14.18;;;1.80;;
27722;SDS011;15123;-37.794;175.246;2023-05-28T11:33:11;13.13;;;1.60;;
27722;SDS011;15123;-37.794;175.246;2023-05-28T11:36:42;12.93;;;1.63;;
27722;SDS011;15123;-37.794;175.246;2023-05-28T11:40:07;11.63;;;1.58;;
27722;SDS011;15123;-37.794;175.246;2023-05-28T11:43:30;17.92;;;1.85;;
27722;SDS011;15123;-37.794;175.246;2023-05-28T11:46:55;14.15;;;1.83;;
27722;SDS011;15123;-37.794;175.246;2023-05-28T11:50:18;16.98;;;2.22;;
27722;SDS011;15123;-37.794;175.246;2023-05-28T11:53:43;18.85;;;1.77;;
27722;SDS011;15123;-37.794;175.246;2023-05-28T11:57:06;13.65;;;1.83;;
27722;SDS011;15123;-37.794;175.246;2023-05-28T12:00:30;16.33;;;2.03;;
27722;SDS011;15123;-37.794;175.246;2023-05-28T12:04:02;16.25;;;1.73;;
27722;SDS011;15123;-37.794;175.246;2023-05-28T12:07:28;13.45;;;1.55;;
27722;SDS011;15123;-37.794;175.246;2023-05-28T12:11:00;15.48;;;1.80;;
27722;SDS011;15123;-37.794;175.246;2023-05-28T12:14:25;15.50;;;2.10;;
27722;SDS011;15123;-37.794;175.246;2023-05-28T12:17:55;18.90;;;2.25;;
27722;SDS011;15123;-37.794;175.246;2023-05-28T12:21:22;20.23;;;2.40;;
27722;SDS011;15123;-37.794;175.246;2023-05-28T12:24:50;19.58;;;2.47;;
27722;SDS011;15123;-37.794;175.246;2023-05-28T12:28:18;17.27;;;2.33;;
27722;SDS011;15123;-37.794;175.246;2023-05-28T12:31:42;15.40;;;2.15;;
27722;SDS011;15123;-37.794;175.246;2023-05-28T12:35:07;16.75;;;2.20;;
27722;SDS011;15123;-37.794;175.246;2023-05-28T12:38:30;22.10;;;2.58;;
27722;SDS011;15123;-37.794;175.246;2023-05-28T12:41:48;18.20;;;3.33;;
27722;SDS011;15123;-37.794;175.246;2023-05-28T12:45:07;19.25;;;2.30;;
27722;SDS011;15123;-37.794;175.246;2023-05-28T12:48:30;21.05;;;2.42;;
27722;SDS011;15123;-37.794;175.246;2023-05-28T12:51:55;15.93;;;1.98;;
27722;SDS011;15123;-37.794;175.246;2023-05-28T12:55:21;18.35;;;2.28;;
27722;SDS011;15123;-37.794;175.246;2023-05-28T12:58:44;17.95;;;2.10;;
27722;SDS011;15123;-37.794;175.246;2023-05-28T13:02:07;18.55;;;2.45;;
27722;SDS011;15123;-37.794;175.246;2023-05-28T13:05:31;17.55;;;1.92;;
27722;SDS011;15123;-37.794;175.246;2023-05-28T13:08:56;19.05;;;2.25;;
27722;SDS011;15123;-37.794;175.246;2023-05-28T13:12:20;16.48;;;2.60;;
27722;SDS011;15123;-37.794;175.246;2023-05-28T13:15:44;17.83;;;2.22;;
27722;SDS011;15123;-37.794;175.246;2023-05-28T13:19:08;15.93;;;2.00;;
27722;SDS011;15123;-37.794;175.246;2023-05-28T13:22:32;15.05;;;1.98;;
27722;SDS011;15123;-37.794;175.246;2023-05-28T13:25:55;13.50;;;1.60;;
27722;SDS011;15123;-37.794;175.246;2023-05-28T13:29:19;16.27;;;1.98;;
27722;SDS011;15123;-37.794;175.246;2023-05-28T13:32:44;12.88;;;1.58;;
27722;SDS011;15123;-37.794;175.246;2023-05-28T13:36:07;14.15;;;1.50;;
27722;SDS011;15123;-37.794;175.246;2023-05-28T13:39:31;10.00;;;1.38;;
27722;SDS011;15123;-37.794;175.246;2023-05-28T13:42:50;18.90;;;1.77;;
27722;SDS011;15123;-37.794;175.246;2023-05-28T13:46:08;14.18;;;1.48;;
27722;SDS011;15123;-37.794;175.246;2023-05-28T13:49:31;12.40;;;1.42;;
27722;SDS011;15123;-37.794;175.246;2023-05-28T13:52:57;15.85;;;2.20;;
27722;SDS011;15123;-37.794;175.246;2023-05-28T13:56:21;12.63;;;1.50;;
27722;SDS011;15123;-37.794;175.246;2023-05-28T13:59:46;14.30;;;1.80;;
27722;SDS011;15123;-37.794;175.246;2023-05-28T14:03:12;11.70;;;1.55;;
27722;SDS011;15123;-37.794;175.246;2023-05-28T14:06:36;16.50;;;1.67;;
27722;SDS011;15123;-37.794;175.246;2023-05-28T14:10:00;13.80;;;1.67;;
27722;SDS011;15123;-37.794;175.246;2023-05-28T14:13:24;13.55;;;1.80;;
27722;SDS011;15123;-37.794;175.246;2023-05-28T14:16:48;15.15;;;1.90;;
27722;SDS011;15123;-37.794;175.246;2023-05-28T14:20:13;14.90;;;1.90;;
27722;SDS011;15123;-37.794;175.246;2023-05-28T14:23:37;18.08;;;2.42;;
27722;SDS011;15123;-37.794;175.246;2023-05-28T14:27:03;17.73;;;1.98;;
27722;SDS011;15123;-37.794;175.246;2023-05-28T14:30:27;19.45;;;2.80;;
27722;SDS011;15123;-37.794;175.246;2023-05-28T14:33:51;16.95;;;2.55;;
27722;SDS011;15123;-37.794;175.246;2023-05-28T14:37:16;24.42;;;3.35;;
27722;SDS011;15123;-37.794;175.246;2023-05-28T14:40:40;26.08;;;3.90;;
27722;SDS011;15123;-37.794;175.246;2023-05-28T14:43:58;25.67;;;3.70;;
27722;SDS011;15123;-37.794;175.246;2023-05-28T14:47:17;22.67;;;3.58;;
27722;SDS011;15123;-37.794;175.246;2023-05-28T14:50:42;32.15;;;4.78;;
27722;SDS011;15123;-37.794;175.246;2023-05-28T14:54:06;24.17;;;4.07;;
27722;SDS011;15123;-37.794;175.246;2023-05-28T14:57:30;22.63;;;3.00;;
27722;SDS011;15123;-37.794;175.246;2023-05-28T15:00:51;23.67;;;3.80;;
27722;SDS011;15123;-37.794;175.246;2023-05-28T15:04:18;19.63;;;2.58;;
27722;SDS011;15123;-37.794;175.246;2023-05-28T15:07:42;22.08;;;3.55;;
27722;SDS011;15123;-37.794;175.246;2023-05-28T15:11:07;25.95;;;3.60;;
27722;SDS011;15123;-37.794;175.246;2023-05-28T15:14:32;26.40;;;4.18;;
27722;SDS011;15123;-37.794;175.246;2023-05-28T15:17:58;20.77;;;2.75;;
27722;SDS011;15123;-37.794;175.246;2023-05-28T15:21:23;24.48;;;3.10;;
27722;SDS011;15123;-37.794;175.246;2023-05-28T15:24:48;29.83;;;3.40;;
27722;SDS011;15123;-37.794;175.246;2023-05-28T15:28:13;19.08;;;2.70;;
27722;SDS011;15123;-37.794;175.246;2023-05-28T15:31:37;26.55;;;3.35;;
27722;SDS011;15123;-37.794;175.246;2023-05-28T15:35:02;17.08;;;2.22;;
27722;SDS011;15123;-37.794;175.246;2023-05-28T15:38:26;23.08;;;2.72;;
27722;SDS011;15123;-37.794;175.246;2023-05-28T15:41:51;18.52;;;2.55;;
27722;SDS011;15123;-37.794;175.246;2023-05-28T15:45:10;16.20;;;2.13;;
27722;SDS011;15123;-37.794;175.246;2023-05-28T15:48:28;20.15;;;2.80;;
27722;SDS011;15123;-37.794;175.246;2023-05-28T15:51:52;21.80;;;2.00;;
27722;SDS011;15123;-37.794;175.246;2023-05-28T15:55:16;15.80;;;1.88;;
27722;SDS011;15123;-37.794;175.246;2023-05-28T15:58:41;23.10;;;2.40;;
27722;SDS011;15123;-37.794;175.246;2023-05-28T16:02:07;15.35;;;1.90;;
27722;SDS011;15123;-37.794;175.246;2023-05-28T16:05:31;14.63;;;2.30;;
27722;SDS011;15123;-37.794;175.246;2023-05-28T16:08:55;15.75;;;1.80;;
27722;SDS011;15123;-37.794;175.246;2023-05-28T16:12:19;18.70;;;2.20;;
27722;SDS011;15123;-37.794;175.246;2023-05-28T16:15:43;17.63;;;2.20;;
27722;SDS011;15123;-37.794;175.246;2023-05-28T16:19:08;15.02;;;2.05;;
27722;SDS011;15123;-37.794;175.246;2023-05-28T16:22:32;19.95;;;2.78;;
27722;SDS011;15123;-37.794;175.246;2023-05-28T16:25:56;18.02;;;2.40;;
27722;SDS011;15123;-37.794;175.246;2023-05-28T16:29:21;14.32;;;1.70;;
27722;SDS011;15123;-37.794;175.246;2023-05-28T16:32:46;17.92;;;2.10;;
27722;SDS011;15123;-37.794;175.246;2023-05-28T16:36:10;19.52;;;2.00;;
27722;SDS011;15123;-37.794;175.246;2023-05-28T16:39:34;22.77;;;2.13;;
27722;SDS011;15123;-37.794;175.246;2023-05-28T16:42:58;17.55;;;2.40;;
27722;SDS011;15123;-37.794;175.246;2023-05-28T16:46:19;18.50;;;2.25;;
27722;SDS011;15123;-37.794;175.246;2023-05-28T16:49:37;20.63;;;2.20;;
27722;SDS011;15123;-37.794;175.246;2023-05-28T16:53:01;15.27;;;1.80;;
27722;SDS011;15123;-37.794;175.246;2023-05-28T16:56:26;12.23;;;1.98;;
27722;SDS011;15123;-37.794;175.246;2023-05-28T16:59:50;15.27;;;1.80;;
27722;SDS011;15123;-37.794;175.246;2023-05-28T17:03:17;18.73;;;2.13;;
27722;SDS011;15123;-37.794;175.246;2023-05-28T17:06:51;16.88;;;1.75;;
27722;SDS011;15123;-37.794;175.246;2023-05-28T17:10:22;21.80;;;2.63;;
27722;SDS011;15123;-37.794;175.246;2023-05-28T17:13:46;18.98;;;2.05;;
27722;SDS011;15123;-37.794;175.246;2023-05-28T17:17:10;19.75;;;2.28;;
27722;SDS011;15123;-37.794;175.246;2023-05-28T17:20:34;16.92;;;2.20;;
27722;SDS011;15123;-37.794;175.246;2023-05-28T17:23:58;18.38;;;2.47;;
27722;SDS011;15123;-37.794;175.246;2023-05-28T17:27:22;18.48;;;2.35;;
27722;SDS011;15123;-37.794;175.246;2023-05-28T17:30:46;18.77;;;2.35;;
27722;SDS011;15123;-37.794;175.246;2023-05-28T17:34:10;18.63;;;2.13;;
27722;SDS011;15123;-37.794;175.246;2023-05-28T17:37:34;18.77;;;2.28;;
27722;SDS011;15123;-37.794;175.246;2023-05-28T17:40:57;18.08;;;1.92;;
27722;SDS011;15123;-37.794;175.246;2023-05-28T17:44:22;13.82;;;1.60;;
27722;SDS011;15123;-37.794;175.246;2023-05-28T17:47:46;21.05;;;2.30;;
27722;SDS011;15123;-37.794;175.246;2023-05-28T17:51:10;15.32;;;2.08;;
27722;SDS011;15123;-37.794;175.246;2023-05-28T17:54:33;15.13;;;1.90;;
27722;SDS011;15123;-37.794;175.246;2023-05-28T17:57:58;20.33;;;2.47;;
27722;SDS011;15123;-37.794;175.246;2023-05-28T18:01:22;17.30;;;2.13;;
27722;SDS011;15123;-37.794;175.246;2023-05-28T18:04:47;18.85;;;2.25;;
27722;SDS011;15123;-37.794;175.246;2023-05-28T18:08:10;21.58;;;2.80;;
27722;SDS011;15123;-37.794;175.246;2023-05-28T18:11:35;17.88;;;2.10;;
27722;SDS011;15123;-37.794;175.246;2023-05-28T18:14:59;17.10;;;2.33;;
27722;SDS011;15123;-37.794;175.246;2023-05-28T18:18:26;21.02;;;2.30;;
27722;SDS011;15123;-37.794;175.246;2023-05-28T18:21:51;17.60;;;2.10;;
27722;SDS011;15123;-37.794;175.246;2023-05-28T18:25:15;20.35;;;2.25;;
27722;SDS011;15123;-37.794;175.246;2023-05-28T18:28:40;17.50;;;1.98;;
27722;SDS011;15123;-37.794;175.246;2023-05-28T18:32:05;15.27;;;2.20;;
27722;SDS011;15123;-37.794;175.246;2023-05-28T18:35:29;14.75;;;2.05;;
27722;SDS011;15123;-37.794;175.246;2023-05-28T18:38:54;16.33;;;2.03;;
27722;SDS011;15123;-37.794;175.246;2023-05-28T18:42:19;17.50;;;2.20;;
27722;SDS011;15123;-37.794;175.246;2023-05-28T18:45:43;16.02;;;2.03;;
27722;SDS011;15123;-37.794;175.246;2023-05-28T18:49:01;17.25;;;2.38;;
27722;SDS011;15123;-37.794;175.246;2023-05-28T18:52:19;18.90;;;2.35;;
27722;SDS011;15123;-37.794;175.246;2023-05-28T18:55:43;14.23;;;2.00;;
27722;SDS011;15123;-37.794;175.246;2023-05-28T18:59:07;19.65;;;2.78;;
27722;SDS011;15123;-37.794;175.246;2023-05-28T19:02:32;20.35;;;2.53;;
27722;SDS011;15123;-37.794;175.246;2023-05-28T19:05:55;20.92;;;2.65;;
27722;SDS011;15123;-37.794;175.246;2023-05-28T19:09:19;19.40;;;2.70;;
27722;SDS011;15123;-37.794;175.246;2023-05-28T19:12:43;16.75;;;2.50;;
27722;SDS011;15123;-37.794;175.246;2023-05-28T19:16:08;20.70;;;2.30;;
27722;SDS011;15123;-37.794;175.246;2023-05-28T19:19:32;17.17;;;2.05;;
27722;SDS011;15123;-37.794;175.246;2023-05-28T19:22:57;23.73;;;3.05;;
27722;SDS011;15123;-37.794;175.246;2023-05-28T19:26:21;16.90;;;2.30;;
27722;SDS011;15123;-37.794;175.246;2023-05-28T19:29:45;19.30;;;2.28;;
27722;SDS011;15123;-37.794;175.246;2023-05-28T19:33:10;18.92;;;2.47;;
27722;SDS011;15123;-37.794;175.246;2023-05-28T19:36:39;15.75;;;1.90;;
27722;SDS011;15123;-37.794;175.246;2023-05-28T19:40:03;17.33;;;2.85;;